createdAt,value
2022-08-26T00:00:16.298Z,50.866787
2022-08-26T00:01:16.309Z,50.866734
2022-08-26T00:02:16.323Z,50.866726
2022-08-26T00:03:16.261Z,50.866688
2022-08-26T00:04:17.332Z,50.866703
2022-08-26T00:05:16.262Z,50.866646
2022-08-26T00:06:16.256Z,50.866550
2022-08-26T00:07:16.243Z,50.866653
2022-08-26T00:08:16.308Z,50.866703
2022-08-26T00:09:16.793Z,50.866722
2022-08-26T00:10:16.216Z,50.866692
2022-08-26T00:11:26.767Z,50.866684
2022-08-26T00:12:17.889Z,50.866673
2022-08-26T00:13:16.187Z,50.866680
2022-08-26T00:14:16.204Z,50.866734
2022-08-26T00:15:16.228Z,50.866676
2022-08-26T00:16:16.187Z,50.866703
2022-08-26T00:17:16.162Z,50.866692
2022-08-26T00:18:21.787Z,50.866676
2022-08-26T00:19:17.186Z,50.866718
2022-08-26T00:20:16.134Z,50.866737
2022-08-26T00:21:16.145Z,50.866718
2022-08-26T00:22:20.195Z,50.866722
2022-08-26T00:23:17.120Z,50.866764
2022-08-26T00:24:16.111Z,50.866756
2022-08-26T00:25:16.810Z,50.866753
2022-08-26T00:26:16.091Z,50.866714
2022-08-26T00:27:16.082Z,50.866676
2022-08-26T00:28:16.086Z,50.866722
2022-08-26T00:29:16.084Z,50.866756
2022-08-26T00:30:16.062Z,50.866806
2022-08-26T00:39:06.737Z,50.866901
2022-08-26T00:40:06.779Z,50.867054
2022-08-26T00:41:06.721Z,50.867065
2022-08-26T00:42:06.717Z,50.867012
2022-08-26T00:43:06.724Z,50.866940
2022-08-26T00:44:06.688Z,50.866859
2022-08-26T00:45:10.191Z,50.866863
2022-08-26T00:46:07.795Z,50.866840
2022-08-26T00:47:06.689Z,50.866760
2022-08-26T00:48:06.669Z,50.866783
2022-08-26T00:49:11.702Z,50.866810
2022-08-26T00:50:07.658Z,50.866802
2022-08-26T00:51:06.641Z,50.866787
2022-08-26T00:52:06.632Z,50.866791
2022-08-26T00:53:07.848Z,50.866741
2022-08-26T00:54:06.607Z,50.866806
2022-08-26T00:55:07.631Z,50.866707
2022-08-26T00:56:07.606Z,50.866665
2022-08-26T00:57:08.693Z,50.866699
2022-08-26T00:58:07.600Z,50.866688
2022-08-26T00:59:07.557Z,50.866714
2022-08-26T01:00:06.573Z,50.866653
2022-08-26T01:01:06.597Z,50.866695
2022-08-26T01:02:06.632Z,50.866760
2022-08-26T01:03:12.627Z,50.866772
2022-08-26T01:04:07.551Z,50.866726
2022-08-26T01:05:06.561Z,50.866688
2022-08-26T01:06:06.522Z,50.866741
2022-08-26T01:07:07.518Z,50.866699
2022-08-26T01:08:06.520Z,50.866722
2022-08-26T01:09:07.062Z,50.866673
2022-08-26T01:10:06.492Z,50.866539
2022-08-26T01:11:06.485Z,50.866535
2022-08-26T01:12:06.469Z,50.866669
2022-08-26T01:13:06.606Z,50.866726
2022-08-26T01:14:06.468Z,50.866734
2022-08-26T01:15:06.449Z,50.866707
2022-08-26T01:16:06.536Z,50.866699
2022-08-26T01:17:07.249Z,50.866722
2022-08-26T01:18:06.440Z,50.866756
2022-08-26T01:19:06.414Z,50.866756
2022-08-26T01:20:06.498Z,50.866718
2022-08-26T01:21:06.408Z,50.866756
2022-08-26T01:22:06.393Z,50.866714
2022-08-26T01:23:06.502Z,50.866730
2022-08-26T01:24:06.383Z,50.866718
2022-08-26T01:25:06.390Z,50.866768
2022-08-26T01:26:06.373Z,50.866737
2022-08-26T01:27:06.348Z,50.866783
2022-08-26T01:28:06.354Z,50.866947
2022-08-26T01:29:06.338Z,50.866806
2022-08-26T01:30:06.333Z,50.866810
2022-08-26T01:31:06.413Z,50.866856
2022-08-26T01:32:06.333Z,50.866772
2022-08-26T01:33:06.435Z,50.866814
2022-08-26T01:34:06.307Z,50.866882
2022-08-26T01:35:06.296Z,50.866821
2022-08-26T01:36:07.528Z,50.866734
2022-08-26T01:37:06.285Z,50.866745
2022-08-26T01:38:06.388Z,50.866787
2022-08-26T01:39:07.171Z,50.866722
2022-08-26T01:40:06.302Z,50.866745
2022-08-26T01:41:16.181Z,50.866730
2022-08-26T01:42:10.271Z,50.866703
2022-08-26T01:43:06.489Z,50.866734
2022-08-26T01:44:06.226Z,50.866756
2022-08-26T01:45:06.252Z,50.866779
2022-08-26T01:46:06.280Z,50.866730
2022-08-26T01:47:06.552Z,50.866821
2022-08-26T01:48:06.188Z,50.866760
2022-08-26T01:49:06.526Z,50.866753
2022-08-26T01:50:06.179Z,50.866699
2022-08-26T01:51:06.171Z,50.866760
2022-08-26T01:52:06.226Z,50.866821
2022-08-26T01:53:06.304Z,50.866798
2022-08-26T01:54:06.154Z,50.866760
2022-08-26T01:55:06.162Z,50.866753
2022-08-26T01:56:06.130Z,50.866798
2022-08-26T01:57:07.078Z,50.866817
2022-08-26T01:58:06.137Z,50.866806
2022-08-26T01:59:06.112Z,50.866764
2022-08-26T02:00:06.125Z,50.866734
2022-08-26T02:01:06.134Z,50.866749
2022-08-26T02:02:06.110Z,50.866749
2022-08-26T02:03:06.269Z,50.866756
2022-08-26T02:04:06.112Z,50.866787
2022-08-26T02:05:06.081Z,50.866795
2022-08-26T02:06:06.061Z,50.866833
2022-08-26T02:07:06.061Z,50.866817
2022-08-26T02:08:06.041Z,50.866814
2022-08-26T02:09:06.048Z,50.866795
2022-08-26T02:10:06.025Z,50.866749
2022-08-26T02:11:06.016Z,50.866692
2022-08-26T02:12:06.012Z,50.866760
2022-08-26T02:13:06.084Z,50.866856
2022-08-26T02:14:06.010Z,50.866833
2022-08-26T02:15:05.984Z,50.866734
2022-08-26T02:16:06.037Z,50.866768
2022-08-26T02:17:05.977Z,50.866802
2022-08-26T02:18:05.965Z,50.866821
2022-08-26T02:19:05.952Z,50.866806
2022-08-26T02:20:05.944Z,50.866795
2022-08-26T02:21:06.935Z,50.866795
2022-08-26T02:22:05.928Z,50.866768
2022-08-26T02:23:06.023Z,50.866745
2022-08-26T02:24:05.919Z,50.866756
2022-08-26T02:25:05.905Z,50.866737
2022-08-26T02:26:05.898Z,50.866730
2022-08-26T02:27:05.886Z,50.866730
2022-08-26T02:28:05.891Z,50.866741
2022-08-26T02:29:05.893Z,50.866737
2022-08-26T02:30:05.880Z,50.866768
2022-08-26T02:31:05.903Z,50.866764
2022-08-26T02:32:05.851Z,50.866764
2022-08-26T02:33:06.027Z,50.866791
2022-08-26T02:34:05.844Z,50.866737
2022-08-26T02:35:06.594Z,50.866745
2022-08-26T02:36:05.821Z,50.866772
2022-08-26T02:37:05.837Z,50.866772
2022-08-26T02:38:10.176Z,50.866768
2022-08-26T02:39:06.815Z,50.866776
2022-08-26T02:40:05.843Z,50.866768
2022-08-26T02:41:05.785Z,50.866783
2022-08-26T02:42:05.784Z,50.866779
2022-08-26T02:43:05.775Z,50.866806
2022-08-26T02:44:05.759Z,50.866814
2022-08-26T02:45:05.753Z,50.866791
2022-08-26T02:46:05.751Z,50.866783
2022-08-26T02:47:05.770Z,50.866760
2022-08-26T02:48:05.731Z,50.866764
2022-08-26T02:49:05.736Z,50.866764
2022-08-26T02:50:05.713Z,50.866760
2022-08-26T02:51:05.720Z,50.866756
2022-08-26T02:52:05.697Z,50.866779
2022-08-26T02:53:05.697Z,50.866718
2022-08-26T02:54:05.679Z,50.866768
2022-08-26T02:55:05.675Z,50.866722
2022-08-26T02:56:05.685Z,50.866795
2022-08-26T02:57:05.667Z,50.866787
2022-08-26T02:58:05.661Z,50.866821
2022-08-26T02:59:05.651Z,50.866817
2022-08-26T03:00:05.644Z,50.866829
2022-08-26T03:01:05.678Z,50.866779
2022-08-26T03:02:05.629Z,50.866768
2022-08-26T03:03:05.620Z,50.866833
2022-08-26T03:04:05.597Z,50.866852
2022-08-26T03:05:05.586Z,50.866867
2022-08-26T03:06:05.582Z,50.866760
2022-08-26T03:07:05.594Z,50.866772
2022-08-26T03:08:05.588Z,50.866703
2022-08-26T03:09:05.560Z,50.866722
2022-08-26T03:10:08.299Z,50.866772
2022-08-26T03:11:05.557Z,50.866638
2022-08-26T03:12:05.552Z,50.866711
2022-08-26T03:13:05.586Z,50.866791
2022-08-26T03:14:05.542Z,50.866837
2022-08-26T03:15:16.463Z,50.866787
2022-08-26T03:16:06.551Z,50.866795
2022-08-26T03:17:05.502Z,50.866760
2022-08-26T03:18:05.495Z,50.866760
2022-08-26T03:19:05.485Z,50.866852
2022-08-26T03:20:05.480Z,50.866837
2022-08-26T03:21:05.474Z,50.866955
2022-08-26T03:22:05.460Z,50.866768
2022-08-26T03:23:05.477Z,50.866798
2022-08-26T03:24:05.452Z,50.866821
2022-08-26T03:25:06.130Z,50.866810
2022-08-26T03:26:05.430Z,50.866825
2022-08-26T03:27:05.985Z,50.866707
2022-08-26T03:28:37.639Z,50.866734
2022-08-26T03:29:06.212Z,50.866703
2022-08-26T03:30:05.395Z,50.866730
2022-08-26T03:31:05.423Z,50.866756
2022-08-26T03:32:05.381Z,50.866714
2022-08-26T03:33:05.421Z,50.866730
2022-08-26T03:34:05.366Z,50.866806
2022-08-26T03:35:05.359Z,50.866840
2022-08-26T03:36:05.346Z,50.866875
2022-08-26T03:37:05.344Z,50.866817
2022-08-26T03:38:05.338Z,50.866745
2022-08-26T03:39:05.325Z,50.866756
2022-08-26T03:40:05.348Z,50.866844
2022-08-26T03:41:05.309Z,50.866833
2022-08-26T03:42:05.299Z,50.866749
2022-08-26T03:43:05.307Z,50.866817
2022-08-26T03:44:05.294Z,50.866772
2022-08-26T03:45:05.277Z,50.866714
2022-08-26T03:46:05.327Z,50.866653
2022-08-26T03:47:05.263Z,50.866596
2022-08-26T03:48:05.267Z,50.866516
2022-08-26T03:49:05.258Z,50.866539
2022-08-26T03:50:05.241Z,50.866653
2022-08-26T03:51:05.237Z,50.866367
2022-08-26T03:52:05.226Z,50.866619
2022-08-26T03:53:05.221Z,50.866615
2022-08-26T03:54:05.220Z,50.866791
2022-08-26T03:55:05.203Z,50.866871
2022-08-26T03:56:05.195Z,50.867004
2022-08-26T03:57:05.197Z,50.867023
2022-08-26T03:58:05.179Z,50.867058
2022-08-26T03:59:05.168Z,50.867012
2022-08-26T04:00:05.169Z,50.867023
2022-08-26T04:01:05.152Z,50.867100
2022-08-26T04:02:11.397Z,50.866943
2022-08-26T04:03:06.378Z,50.866928
2022-08-26T04:04:05.132Z,50.866821
2022-08-26T04:05:05.121Z,50.866753
2022-08-26T04:06:05.116Z,50.866695
2022-08-26T04:07:05.110Z,50.866661
2022-08-26T04:08:05.112Z,50.866768
2022-08-26T04:09:05.109Z,50.866776
2022-08-26T04:10:05.088Z,50.866737
2022-08-26T04:11:05.076Z,50.866787
2022-08-26T04:12:05.069Z,50.866768
2022-08-26T04:13:05.149Z,50.866772
2022-08-26T04:14:05.077Z,50.866844
2022-08-26T04:15:05.044Z,50.866920
2022-08-26T04:16:05.076Z,50.867016
2022-08-26T04:17:05.034Z,50.867119
2022-08-26T04:18:05.027Z,50.867107
2022-08-26T04:19:05.014Z,50.867088
2022-08-26T04:20:05.010Z,50.867092
2022-08-26T04:21:04.998Z,50.867073
2022-08-26T04:22:04.989Z,50.867043
2022-08-26T04:23:05.823Z,50.866962
2022-08-26T04:24:04.977Z,50.866898
2022-08-26T04:25:04.978Z,50.867050
2022-08-26T04:26:04.956Z,50.867104
2022-08-26T04:27:04.946Z,50.867062
2022-08-26T04:28:04.957Z,50.867023
2022-08-26T04:29:04.953Z,50.867054
2022-08-26T04:30:04.926Z,50.866951
2022-08-26T04:31:04.973Z,50.866947
2022-08-26T04:32:04.917Z,50.866947
2022-08-26T04:33:12.916Z,50.867100
2022-08-26T04:34:05.892Z,50.867100
2022-08-26T04:35:04.891Z,50.867207
2022-08-26T04:36:04.880Z,50.867168
2022-08-26T04:37:04.879Z,50.867092
2022-08-26T04:38:05.781Z,50.867188
2022-08-26T04:39:04.854Z,50.867069
2022-08-26T04:40:04.903Z,50.866898
2022-08-26T04:41:05.454Z,50.867050
2022-08-26T04:42:06.683Z,50.867081
2022-08-26T04:43:04.853Z,50.867023
2022-08-26T04:44:04.817Z,50.867149
2022-08-26T04:45:05.662Z,50.867138
2022-08-26T04:46:05.852Z,50.867161
2022-08-26T04:47:04.793Z,50.867161
2022-08-26T04:48:04.805Z,50.867199
2022-08-26T04:49:04.778Z,50.867126
2022-08-26T04:50:04.770Z,50.867283
2022-08-26T04:51:04.759Z,50.867393
2022-08-26T04:52:04.844Z,50.867085
2022-08-26T04:53:05.834Z,50.867092
2022-08-26T04:54:04.745Z,50.867146
2022-08-26T04:55:04.734Z,50.866684
2022-08-26T04:56:04.728Z,50.866661
2022-08-26T04:57:05.667Z,50.866611
2022-08-26T04:58:04.699Z,50.866650
2022-08-26T04:59:04.698Z,50.866653
2022-08-26T05:00:04.693Z,50.866665
2022-08-26T05:01:04.680Z,50.866642
2022-08-26T05:02:04.731Z,50.866638
2022-08-26T05:03:04.696Z,50.866631
2022-08-26T05:04:05.008Z,50.866650
2022-08-26T05:05:04.665Z,50.866680
2022-08-26T05:06:04.641Z,50.866619
2022-08-26T05:07:04.632Z,50.866642
2022-08-26T05:08:04.665Z,50.866650
2022-08-26T05:09:04.623Z,50.866638
2022-08-26T05:10:04.616Z,50.866627
2022-08-26T05:11:04.600Z,50.866611
2022-08-26T05:12:04.596Z,50.866657
2022-08-26T05:13:04.645Z,50.866764
2022-08-26T05:14:05.578Z,50.866856
2022-08-26T05:15:04.560Z,50.866894
2022-08-26T05:16:05.628Z,50.866863
2022-08-26T05:17:04.756Z,50.866768
2022-08-26T05:18:04.544Z,50.866707
2022-08-26T05:19:04.544Z,50.866734
2022-08-26T05:20:04.535Z,50.866684
2022-08-26T05:21:04.521Z,50.866680
2022-08-26T05:22:04.503Z,50.866688
2022-08-26T05:23:05.538Z,50.866722
2022-08-26T05:24:04.496Z,50.866734
2022-08-26T05:25:04.497Z,50.866676
2022-08-26T05:26:05.064Z,50.866695
2022-08-26T05:27:04.486Z,50.866764
2022-08-26T05:28:05.465Z,50.866692
2022-08-26T05:29:04.461Z,50.866684
2022-08-26T05:30:04.455Z,50.866718
2022-08-26T05:31:04.510Z,50.866699
2022-08-26T05:32:04.436Z,50.866734
2022-08-26T05:33:04.429Z,50.866665
2022-08-26T05:34:04.414Z,50.866631
2022-08-26T05:35:05.415Z,50.866638
2022-08-26T05:36:04.417Z,50.866726
2022-08-26T05:37:04.403Z,50.866673
2022-08-26T05:38:04.395Z,50.866714
2022-08-26T05:39:04.402Z,50.866699
2022-08-26T05:40:04.471Z,50.866714
2022-08-26T05:41:04.376Z,50.866703
2022-08-26T05:42:04.360Z,50.866627
2022-08-26T05:43:04.392Z,50.866692
2022-08-26T05:44:04.351Z,50.866650
2022-08-26T05:45:04.358Z,50.866631
2022-08-26T05:46:04.335Z,50.866722
2022-08-26T05:47:04.324Z,50.866684
2022-08-26T05:48:04.323Z,50.866634
2022-08-26T05:49:04.310Z,50.866680
2022-08-26T05:50:04.308Z,50.866657
2022-08-26T05:51:04.306Z,50.866611
2022-08-26T05:52:04.314Z,50.866615
2022-08-26T05:53:06.264Z,50.866673
2022-08-26T05:54:04.287Z,50.866695
2022-08-26T05:55:04.268Z,50.866734
2022-08-26T05:56:04.259Z,50.866707
2022-08-26T05:57:04.260Z,50.866661
2022-08-26T05:58:04.235Z,50.866650
2022-08-26T05:59:04.519Z,50.866600
2022-08-26T06:00:04.243Z,50.866676
2022-08-26T06:01:04.253Z,50.866619
2022-08-26T06:02:04.241Z,50.866581
2022-08-26T06:03:04.276Z,50.866623
2022-08-26T06:04:04.710Z,50.866577
2022-08-26T06:05:05.189Z,50.866615
2022-08-26T06:06:04.189Z,50.866554
2022-08-26T06:07:04.165Z,50.866600
2022-08-26T06:08:04.158Z,50.866653
2022-08-26T06:09:04.156Z,50.866646
2022-08-26T06:10:30.617Z,50.866695
2022-08-26T06:11:06.144Z,50.866669
2022-08-26T06:12:04.126Z,50.866669
2022-08-26T06:13:09.165Z,50.866734
2022-08-26T06:14:06.111Z,50.866665
2022-08-26T06:15:04.237Z,50.866665
2022-08-26T06:16:04.137Z,50.866653
2022-08-26T06:17:04.100Z,50.866611
2022-08-26T06:18:04.076Z,50.866608
2022-08-26T06:19:10.366Z,50.866543
2022-08-26T06:20:05.058Z,50.866592
2022-08-26T06:21:04.056Z,50.866657
2022-08-26T06:22:04.046Z,50.866646
2022-08-26T06:23:04.040Z,50.866608
2022-08-26T06:24:04.039Z,50.866600
2022-08-26T06:25:04.033Z,50.866600
2022-08-26T06:26:04.018Z,50.866451
2022-08-26T06:27:04.017Z,50.866524
2022-08-26T06:28:03.999Z,50.866795
2022-08-26T06:29:03.991Z,50.866730
2022-08-26T06:30:03.989Z,50.866653
2022-08-26T06:31:04.028Z,50.866634
2022-08-26T06:32:03.994Z,50.866802
2022-08-26T06:33:03.967Z,50.866692
2022-08-26T06:34:08.535Z,50.866795
2022-08-26T06:35:05.945Z,50.866844
2022-08-26T06:36:05.700Z,50.866955
2022-08-26T06:37:03.935Z,50.866825
2022-08-26T06:38:04.711Z,50.866848
2022-08-26T06:39:03.927Z,50.866833
2022-08-26T06:40:03.955Z,50.866924
2022-08-26T06:41:03.900Z,50.866917
2022-08-26T06:42:06.317Z,50.866913
2022-08-26T06:43:03.901Z,50.866825
2022-08-26T06:44:03.892Z,50.866943
2022-08-26T06:45:03.874Z,50.866901
2022-08-26T06:46:04.853Z,50.867096
2022-08-26T06:47:03.862Z,50.867050
2022-08-26T06:48:03.848Z,50.867023
2022-08-26T06:49:03.850Z,50.867046
2022-08-26T06:50:03.833Z,50.867046
2022-08-26T06:51:03.830Z,50.866943
2022-08-26T06:52:04.710Z,50.866856
2022-08-26T06:53:03.808Z,50.866848
2022-08-26T06:54:03.804Z,50.866917
2022-08-26T06:55:03.822Z,50.867104
2022-08-26T06:56:03.793Z,50.866844
2022-08-26T06:57:03.776Z,50.866753
2022-08-26T06:58:03.874Z,50.866543
2022-08-26T06:59:03.766Z,50.866554
2022-08-26T07:00:03.764Z,50.866741
2022-08-26T07:01:11.224Z,50.866825
2022-08-26T07:02:05.771Z,50.866814
2022-08-26T07:03:03.832Z,50.866920
2022-08-26T07:04:03.722Z,50.866936
2022-08-26T07:05:03.732Z,50.866863
2022-08-26T07:06:03.708Z,50.866959
2022-08-26T07:07:03.703Z,50.866928
2022-08-26T07:08:03.689Z,50.867001
2022-08-26T07:09:03.734Z,50.867004
2022-08-26T07:10:04.218Z,50.866989
2022-08-26T07:11:03.684Z,50.866913
2022-08-26T07:12:05.490Z,50.866943
2022-08-26T07:22:12.931Z,50.866608
2022-08-26T07:23:12.925Z,50.866772
2022-08-26T07:24:12.929Z,50.866749
2022-08-26T07:25:12.916Z,50.866745
2022-08-26T07:26:12.899Z,50.866741
2022-08-26T07:27:12.897Z,50.866802
2022-08-26T07:28:12.884Z,50.866825
2022-08-26T07:29:12.869Z,50.866844
2022-08-26T07:30:14.918Z,50.866821
2022-08-26T07:31:12.935Z,50.866764
2022-08-26T07:32:12.855Z,50.866795
2022-08-26T07:33:13.576Z,50.866867
2022-08-26T07:34:12.852Z,50.866879
2022-08-26T07:35:12.860Z,50.866829
2022-08-26T07:36:12.819Z,50.866829
2022-08-26T07:37:12.816Z,50.866825
2022-08-26T07:38:12.808Z,50.866722
2022-08-26T07:39:12.798Z,50.866711
2022-08-26T07:40:13.615Z,50.866745
2022-08-26T07:41:12.777Z,50.866947
2022-08-26T07:42:12.778Z,50.866993
2022-08-26T07:43:12.763Z,50.866993
2022-08-26T07:44:13.680Z,50.866993
2022-08-26T07:45:13.590Z,50.866993
2022-08-26T07:46:16.366Z,50.866993
2022-08-26T07:47:25.722Z,50.866898
2022-08-26T07:48:13.757Z,50.866894
2022-08-26T07:49:12.749Z,50.867046
2022-08-26T07:50:12.708Z,50.866772
2022-08-26T07:51:12.722Z,50.866867
2022-08-26T07:52:12.698Z,50.866783
2022-08-26T07:53:12.832Z,50.866817
2022-08-26T07:54:45.612Z,50.866848
2022-08-26T07:55:12.666Z,50.866787
2022-08-26T07:56:12.667Z,50.866776
2022-08-26T07:57:12.656Z,50.866825
2022-08-26T07:58:12.651Z,50.866825
2022-08-26T07:59:13.700Z,50.866856
2022-08-26T08:00:12.633Z,50.866795
2022-08-26T08:01:12.683Z,50.866806
2022-08-26T08:02:12.609Z,50.866768
2022-08-26T08:03:12.602Z,50.866783
2022-08-26T08:04:12.608Z,50.866795
2022-08-26T08:05:12.629Z,50.866722
2022-08-26T08:06:12.585Z,50.866764
2022-08-26T08:07:12.573Z,50.866859
2022-08-26T08:08:27.959Z,50.866760
2022-08-26T08:09:13.579Z,50.866829
2022-08-26T08:10:12.576Z,50.866856
2022-08-26T08:11:12.541Z,50.866795
2022-08-26T08:12:14.182Z,50.866756
2022-08-26T08:13:12.530Z,50.866821
2022-08-26T08:14:12.527Z,50.866684
2022-08-26T08:15:12.553Z,50.866760
2022-08-26T08:16:12.847Z,50.866768
2022-08-26T08:18:15.493Z,50.866741
2022-08-26T08:19:12.487Z,50.866737
2022-08-26T08:20:12.486Z,50.866722
2022-08-26T08:21:21.851Z,50.866768
2022-08-26T08:22:17.600Z,50.866661
2022-08-26T08:23:13.466Z,50.866730
2022-08-26T08:24:12.460Z,50.866699
2022-08-26T08:25:12.444Z,50.866707
2022-08-26T08:26:12.432Z,50.866734
2022-08-26T08:27:12.434Z,50.866714
2022-08-26T08:28:12.435Z,50.866783
2022-08-26T08:29:12.419Z,50.866737
2022-08-26T08:30:13.718Z,50.866772
2022-08-26T08:31:12.420Z,50.866776
2022-08-26T08:32:12.395Z,50.866764
2022-08-26T08:33:12.384Z,50.866741
2022-08-26T08:34:12.375Z,50.866684
2022-08-26T08:35:12.364Z,50.866608
2022-08-26T08:36:12.352Z,50.866692
2022-08-26T08:37:13.357Z,50.866745
2022-08-26T08:38:12.364Z,50.866817
2022-08-26T08:39:12.336Z,50.866802
2022-08-26T08:40:12.355Z,50.866756
2022-08-26T08:41:12.319Z,50.866699
2022-08-26T08:42:12.326Z,50.866699
2022-08-26T08:43:12.322Z,50.866699
2022-08-26T08:44:12.349Z,50.866699
2022-08-26T08:45:12.323Z,50.866699
2022-08-26T08:46:12.347Z,50.866699
2022-08-26T08:47:12.280Z,50.866711
2022-08-26T08:48:12.265Z,50.866741
2022-08-26T08:49:12.258Z,50.866768
2022-08-26T08:50:12.255Z,50.866867
2022-08-26T08:51:12.285Z,50.866924
2022-08-26T08:52:12.253Z,50.867001
2022-08-26T08:53:12.232Z,50.866966
2022-08-26T08:54:12.223Z,50.866966
2022-08-26T08:55:14.794Z,50.867027
2022-08-26T08:56:13.197Z,50.866901
2022-08-26T08:57:12.206Z,50.866898
2022-08-26T08:58:12.267Z,50.866943
2022-08-26T08:59:12.183Z,50.866936
2022-08-26T09:00:12.200Z,50.866966
2022-08-26T09:01:12.211Z,50.866833
2022-08-26T09:02:12.199Z,50.866913
2022-08-26T09:03:12.192Z,50.866997
2022-08-26T09:04:12.174Z,50.866928
2022-08-26T09:05:15.454Z,50.866901
2022-08-26T09:06:12.126Z,50.866852
2022-08-26T09:07:12.124Z,50.866730
2022-08-26T09:08:12.322Z,50.866734
2022-08-26T09:09:12.111Z,50.866894
2022-08-26T09:10:12.096Z,50.867031
2022-08-26T09:11:12.096Z,50.866909
2022-08-26T09:12:12.080Z,50.866756
2022-08-26T09:13:16.307Z,50.866863
2022-08-26T09:14:13.075Z,50.866974
2022-08-26T09:15:12.055Z,50.867050
2022-08-26T09:16:12.053Z,50.866928
2022-08-26T09:17:12.131Z,50.866905
2022-08-26T09:18:12.038Z,50.866825
2022-08-26T09:19:12.030Z,50.867241
2022-08-26T09:20:12.028Z,50.867008
2022-08-26T09:21:12.012Z,50.866714
2022-08-26T09:22:12.053Z,50.867298
2022-08-26T09:23:12.004Z,50.867241
2022-08-26T09:24:13.890Z,50.867111
2022-08-26T09:25:12.001Z,50.866512
2022-08-26T09:26:11.972Z,50.866566
2022-08-26T09:27:11.965Z,50.866623
2022-08-26T09:28:11.969Z,50.866802
2022-08-26T09:29:11.986Z,50.866837
2022-08-26T09:30:12.653Z,50.867001
2022-08-26T09:31:12.012Z,50.866802
2022-08-26T09:32:11.931Z,50.867069
2022-08-26T09:33:12.120Z,50.866840
2022-08-26T09:34:11.924Z,50.866673
2022-08-26T09:35:12.904Z,50.866596
2022-08-26T09:36:11.911Z,50.866528
2022-08-26T09:37:11.890Z,50.866898
2022-08-26T09:38:12.271Z,50.866783
2022-08-26T09:39:11.878Z,50.866692
2022-08-26T09:40:11.928Z,50.866653
2022-08-26T09:41:11.867Z,50.866756
2022-08-26T09:42:11.859Z,50.866714
2022-08-26T09:43:11.843Z,50.866905
2022-08-26T09:44:14.577Z,50.867027
2022-08-26T09:45:11.830Z,50.867077
2022-08-26T09:46:11.860Z,50.867065
2022-08-26T09:47:11.817Z,50.866779
2022-08-26T09:48:11.816Z,50.867294
2022-08-26T09:49:12.799Z,50.868134
2022-08-26T09:50:12.506Z,50.866985
2022-08-26T09:51:11.795Z,50.866428
2022-08-26T09:52:11.780Z,50.866470
2022-08-26T09:53:12.962Z,50.866501
2022-08-26T09:54:11.766Z,50.866768
2022-08-26T09:55:12.781Z,50.866627
2022-08-26T09:56:11.817Z,50.866707
2022-08-26T09:57:11.839Z,50.866714
2022-08-26T09:58:11.828Z,50.866875
2022-08-26T09:59:11.957Z,50.866909
2022-08-26T10:00:11.732Z,50.866894
2022-08-26T10:01:11.770Z,50.866760
2022-08-26T10:02:12.704Z,50.866604
2022-08-26T10:03:12.010Z,50.866680
2022-08-26T10:04:11.716Z,50.866684
2022-08-26T10:05:11.675Z,50.866711
2022-08-26T10:06:11.708Z,50.866596
2022-08-26T10:07:11.658Z,50.866703
2022-08-26T10:08:11.665Z,50.866726
2022-08-26T10:09:11.654Z,50.866753
2022-08-26T10:10:11.649Z,50.866749
2022-08-26T10:11:11.630Z,50.866600
2022-08-26T10:12:12.175Z,50.866562
2022-08-26T10:13:11.728Z,50.866680
2022-08-26T10:14:11.603Z,50.866734
2022-08-26T10:15:11.875Z,50.866802
2022-08-26T10:16:11.663Z,50.866692
2022-08-26T10:17:11.657Z,50.867020
2022-08-26T10:18:12.182Z,50.866779
2022-08-26T10:19:11.571Z,50.866970
2022-08-26T10:20:22.894Z,50.867119
2022-08-26T10:21:13.559Z,50.866737
2022-08-26T10:22:11.556Z,50.867069
2022-08-26T10:23:11.557Z,50.866741
2022-08-26T10:24:12.441Z,50.866589
2022-08-26T10:25:11.527Z,50.866673
2022-08-26T10:26:11.521Z,50.866779
2022-08-26T10:27:11.554Z,50.866817
2022-08-26T10:28:11.562Z,50.866844
2022-08-26T10:29:11.514Z,50.866684
2022-08-26T10:30:11.500Z,50.866833
2022-08-26T10:31:11.494Z,50.866913
2022-08-26T10:32:13.869Z,50.866898
2022-08-26T10:33:11.489Z,50.866894
2022-08-26T10:34:12.394Z,50.866726
2022-08-26T10:35:11.498Z,50.866730
2022-08-26T10:36:15.189Z,50.866673
2022-08-26T10:37:15.718Z,50.866833
2022-08-26T10:38:11.448Z,50.866844
2022-08-26T10:39:11.433Z,50.866669
2022-08-26T10:40:11.458Z,50.866596
2022-08-26T10:41:11.407Z,50.866779
2022-08-26T10:42:11.412Z,50.866829
2022-08-26T10:43:12.269Z,50.866779
2022-08-26T10:44:12.264Z,50.866802
2022-08-26T10:45:11.834Z,50.866829
2022-08-26T10:46:11.400Z,50.866802
2022-08-26T10:47:11.374Z,50.866798
2022-08-26T10:48:11.426Z,50.866776
2022-08-26T10:49:11.453Z,50.866859
2022-08-26T10:50:11.346Z,50.866882
2022-08-26T10:51:11.330Z,50.866844
2022-08-26T10:52:15.198Z,50.866821
2022-08-26T10:53:12.327Z,50.866608
2022-08-26T10:54:11.807Z,50.866577
2022-08-26T10:55:11.325Z,50.866684
2022-08-26T10:56:18.878Z,50.866695
2022-08-26T10:57:12.299Z,50.866692
2022-08-26T10:58:11.611Z,50.866669
2022-08-26T10:59:12.229Z,50.866699
2022-08-26T11:00:11.277Z,50.866760
2022-08-26T11:01:11.320Z,50.866776
2022-08-26T11:02:11.247Z,50.866665
2022-08-26T11:03:21.749Z,50.866810
2022-08-26T11:04:12.324Z,50.866779
2022-08-26T11:05:11.229Z,50.866756
2022-08-26T11:06:11.215Z,50.866749
2022-08-26T11:07:11.215Z,50.866753
2022-08-26T11:08:11.222Z,50.866787
2022-08-26T11:09:11.233Z,50.866840
2022-08-26T11:10:11.185Z,50.866791
2022-08-26T11:11:11.188Z,50.866795
2022-08-26T11:12:11.178Z,50.866768
2022-08-26T11:13:11.255Z,50.866791
2022-08-26T11:14:11.161Z,50.866791
2022-08-26T11:15:11.168Z,50.866745
2022-08-26T11:16:11.798Z,50.866768
2022-08-26T11:17:12.134Z,50.866814
2022-08-26T11:18:11.334Z,50.866810
2022-08-26T11:19:11.126Z,50.866707
2022-08-26T11:20:13.671Z,50.866745
2022-08-26T11:21:11.114Z,50.866760
2022-08-26T11:22:11.107Z,50.866768
2022-08-26T11:23:11.095Z,50.866703
2022-08-26T11:24:11.104Z,50.866714
2022-08-26T11:25:11.445Z,50.866699
2022-08-26T11:26:12.822Z,50.866760
2022-08-26T11:27:12.060Z,50.866806
2022-08-26T11:28:11.810Z,50.866760
2022-08-26T11:29:13.635Z,50.866665
2022-08-26T11:30:11.044Z,50.866776
2022-08-26T11:31:11.083Z,50.866753
2022-08-26T11:32:11.030Z,50.866665
2022-08-26T11:33:11.362Z,50.866714
2022-08-26T11:34:11.097Z,50.866734
2022-08-26T11:35:11.009Z,50.866730
2022-08-26T11:36:12.229Z,50.866756
2022-08-26T11:37:11.026Z,50.866734
2022-08-26T11:38:11.010Z,50.866825
2022-08-26T11:39:10.975Z,50.866802
2022-08-26T11:40:47.092Z,50.866745
2022-08-26T11:41:10.956Z,50.866795
2022-08-26T11:42:10.961Z,50.866695